Time;durP1;ratioP1;P1;durP2;ratioP2;P2;SDS_P1;SDS_P2;PMS_P1;PMS_P2;Temp;Humidity;BMP_temperature;BMP_pressure;BME280_temperature;BME280_humidity;BME280_pressure;Samples;Min_cycle;Max_cycle;Signal;HPM_P1;HPM_P2
2022/07/11 00:02:26;;;;;;;3.17;1.07;;;13.60;99.90;;;;;;5094259;28;20199;-65
2022/07/11 00:04:54;;;;;;;3.07;1.10;;;13.70;99.90;;;;;;5094717;28;20174;-66
2022/07/11 00:07:21;;;;;;;2.70;1.20;;;13.60;99.90;;;;;;5094566;28;20193;-66
2022/07/11 00:09:48;;;;;;;6.20;1.20;;;14.00;99.90;;;;;;5092848;28;20216;-65
2022/07/11 00:12:16;;;;;;;4.33;1.07;;;14.10;99.90;;;;;;5076528;28;20214;-65
2022/07/11 00:14:43;;;;;;;2.40;1.20;;;13.80;99.90;;;;;;5057909;28;20183;-65
2022/07/11 00:17:10;;;;;;;1.03;0.80;;;14.10;99.90;;;;;;5087226;28;20182;-64
2022/07/11 00:19:39;;;;;;;3.80;0.90;;;14.80;99.90;;;;;;5086983;28;20184;-64
2022/07/11 00:22:06;;;;;;;3.90;0.90;;;15.10;99.90;;;;;;5074569;28;20195;-65
2022/07/11 00:24:34;;;;;;;1.13;1.00;;;15.00;99.90;;;;;;5072433;28;20210;-63
2022/07/11 00:27:02;;;;;;;2.23;0.87;;;15.00;99.90;;;;;;5069534;28;20258;-65
2022/07/11 00:29:29;;;;;;;2.87;1.10;;;15.30;99.90;;;;;;5072334;28;20184;-64
2022/07/11 00:31:57;;;;;;;3.27;1.00;;;15.10;99.90;;;;;;5074626;28;20557;-64
2022/07/11 00:34:26;;;;;;;2.30;1.10;;;15.30;99.90;;;;;;5072610;28;20187;-64
2022/07/11 00:36:53;;;;;;;3.73;1.07;;;15.80;99.90;;;;;;5086456;28;20199;-65
2022/07/11 00:39:21;;;;;;;4.17;0.90;;;16.40;99.90;;;;;;5077750;28;20179;-64
2022/07/11 00:41:48;;;;;;;4.07;1.13;;;16.40;99.90;;;;;;5092556;28;20179;-66
2022/07/11 00:44:15;;;;;;;2.17;0.90;;;16.10;99.90;;;;;;5092229;28;20180;-66
2022/07/11 00:46:42;;;;;;;2.10;0.83;;;15.70;99.90;;;;;;5087470;28;20192;-66
2022/07/11 00:49:10;;;;;;;3.53;0.80;;;15.60;99.90;;;;;;5069302;28;20183;-65
2022/07/11 00:51:37;;;;;;;2.00;0.80;;;15.40;99.90;;;;;;5072147;28;20195;-66
2022/07/11 00:54:10;;;;;;;4.93;1.03;;;15.40;99.90;;;;;;5073840;28;20773;-65
2022/07/11 00:56:38;;;;;;;4.20;0.90;;;15.50;99.90;;;;;;5092422;28;20183;-65
2022/07/11 00:59:05;;;;;;;2.13;0.73;;;15.60;99.90;;;;;;5092214;28;20280;-64
2022/07/11 01:01:37;;;;;;;3.27;1.07;;;15.70;99.90;;;;;;5092202;28;20214;-65
2022/07/11 01:04:05;;;;;;;3.80;0.90;;;15.70;99.90;;;;;;5092412;28;20277;-64
2022/07/11 01:06:32;;;;;;;2.40;1.10;;;15.50;99.90;;;;;;5092276;28;20547;-64
2022/07/11 01:09:00;;;;;;;2.73;0.70;;;15.80;99.90;;;;;;5085256;28;20191;-64
2022/07/11 01:11:28;;;;;;;4.27;1.20;;;16.60;99.90;;;;;;5071596;28;20179;-63
2022/07/11 01:13:55;;;;;;;2.77;1.00;;;17.00;99.90;;;;;;5074272;28;20222;-65
2022/07/11 01:16:24;;;;;;;4.13;1.07;;;17.50;99.90;;;;;;5073519;28;20182;-65
2022/07/11 01:18:54;;;;;;;4.23;0.80;;;17.60;99.90;;;;;;5084221;28;20327;-64
2022/07/11 01:21:25;;;;;;;2.70;0.70;;;17.90;99.90;;;;;;5086312;28;20183;-65
2022/07/11 01:23:55;;;;;;;4.80;1.03;;;18.20;99.90;;;;;;5092136;28;20645;-65
2022/07/11 01:26:23;;;;;;;2.30;0.63;;;18.80;99.90;;;;;;5091790;28;20182;-63
2022/07/11 01:28:51;;;;;;;1.63;0.50;;;18.90;99.90;;;;;;5091903;28;20191;-64
2022/07/11 01:31:20;;;;;;;2.47;0.80;;;19.10;99.90;;;;;;5090071;28;20179;-65
2022/07/11 01:33:47;;;;;;;2.40;0.70;;;18.80;99.90;;;;;;5091324;28;20256;-64
2022/07/11 01:36:14;;;;;;;4.37;0.90;;;18.90;99.90;;;;;;5077409;28;20663;-65
2022/07/11 01:38:42;;;;;;;3.30;0.70;;;19.00;99.90;;;;;;5071667;28;20172;-65
2022/07/11 01:41:09;;;;;;;1.60;0.67;;;18.90;99.90;;;;;;5071639;28;20217;-65
2022/07/11 01:43:36;;;;;;;4.37;0.90;;;19.40;99.90;;;;;;5071598;28;20274;-65
2022/07/11 01:46:04;;;;;;;3.13;0.80;;;20.00;99.90;;;;;;5083314;28;20241;-65
2022/07/11 01:48:31;;;;;;;3.47;0.90;;;20.20;99.90;;;;;;5091513;28;20206;-65
2022/07/11 01:50:59;;;;;;;2.47;0.67;;;19.90;99.90;;;;;;5091409;28;20198;-65
2022/07/11 01:53:26;;;;;;;4.67;0.87;;;19.40;99.90;;;;;;5067270;28;20255;-63
2022/07/11 01:55:53;;;;;;;2.77;0.83;;;19.00;99.90;;;;;;5089996;28;20721;-65
2022/07/11 01:58:21;;;;;;;3.87;1.10;;;18.10;99.90;;;;;;5072272;28;20593;-64
2022/07/11 02:00:48;;;;;;;2.50;0.90;;;18.10;99.90;;;;;;5095547;28;20696;-64
2022/07/11 02:03:16;;;;;;;3.57;0.80;;;17.90;99.90;;;;;;5065914;28;20188;-66
2022/07/11 02:05:44;;;;;;;4.67;1.00;;;18.80;99.90;;;;;;5059865;28;20191;-63
2022/07/11 02:08:14;;;;;;;3.07;0.93;;;18.50;99.90;;;;;;5090870;28;20190;-64
2022/07/11 02:10:46;;;;;;;3.53;0.90;;;18.20;99.90;;;;;;5095261;28;20186;-64
2022/07/11 02:13:15;;;;;;;3.30;0.80;;;18.10;99.90;;;;;;5095168;28;20257;-64
2022/07/11 02:15:44;;;;;;;3.80;0.97;;;18.20;99.90;;;;;;5080125;28;20661;-65
2022/07/11 02:18:12;;;;;;;2.57;0.70;;;18.10;99.90;;;;;;5080554;28;20191;-63
2022/07/11 02:20:42;;;;;;;2.10;1.03;;;18.90;99.90;;;;;;5086566;28;20662;-64
2022/07/11 02:23:10;;;;;;;4.57;1.03;;;18.80;99.90;;;;;;5077286;28;20546;-64
2022/07/11 02:25:40;;;;;;;2.73;0.60;;;19.00;99.90;;;;;;5095464;28;20270;-63
2022/07/11 02:28:09;;;;;;;3.10;0.80;;;19.40;99.90;;;;;;5095287;28;20318;-64
2022/07/11 02:30:37;;;;;;;3.00;0.80;;;19.80;99.90;;;;;;5095315;28;20172;-64
2022/07/11 02:33:11;;;;;;;6.20;0.87;;;19.80;99.90;;;;;;5073706;28;20314;-64
2022/07/11 02:35:38;;;;;;;3.33;0.80;;;18.90;99.90;;;;;;5072355;28;20180;-64
2022/07/11 02:38:05;;;;;;;2.23;0.70;;;18.40;99.90;;;;;;5074867;28;20703;-64
2022/07/11 02:40:33;;;;;;;6.97;0.90;;;18.60;99.90;;;;;;5079107;28;20255;-65
2022/07/11 02:43:00;;;;;;;3.07;0.93;;;19.30;99.90;;;;;;5094239;28;20252;-66
2022/07/11 02:45:27;;;;;;;3.40;0.73;;;19.50;99.90;;;;;;5094938;28;20654;-65
2022/07/11 02:47:55;;;;;;;2.53;0.90;;;19.10;99.90;;;;;;5093077;28;20328;-64
2022/07/11 02:50:22;;;;;;;2.00;0.80;;;18.70;99.90;;;;;;5085620;28;20194;-64
2022/07/11 02:52:49;;;;;;;3.47;0.87;;;17.60;99.90;;;;;;5087549;28;20241;-64
2022/07/11 02:55:17;;;;;;;2.47;0.50;;;17.10;99.90;;;;;;5089759;28;20173;-64
2022/07/11 02:57:44;;;;;;;2.77;0.80;;;16.90;99.90;;;;;;5071044;28;20258;-65
2022/07/11 03:00:17;;;;;;;3.80;1.00;;;16.40;99.90;;;;;;5095190;28;20583;-64
2022/07/11 03:02:45;;;;;;;2.90;1.00;;;16.10;99.90;;;;;;5094466;28;20187;-64
2022/07/11 03:05:13;;;;;;;2.57;0.80;;;15.70;99.90;;;;;;5094042;28;20653;-64
2022/07/11 03:07:40;;;;;;;5.67;0.90;;;15.60;99.90;;;;;;5075320;28;20187;-65
2022/07/11 03:10:08;;;;;;;1.30;0.77;;;15.40;99.90;;;;;;5093990;28;20211;-65
2022/07/11 03:12:36;;;;;;;3.40;0.80;;;15.20;99.90;;;;;;5090440;28;20214;-64
2022/07/11 03:15:04;;;;;;;4.03;1.00;;;15.10;99.90;;;;;;5076320;28;20719;-65
2022/07/11 03:17:31;;;;;;;9.53;1.60;;;15.00;99.90;;;;;;5087481;28;20304;-65
2022/07/11 03:20:00;;;;;;;1.93;1.10;;;14.90;99.90;;;;;;5093755;28;20177;-64
2022/07/11 03:22:28;;;;;;;2.63;0.90;;;14.90;99.90;;;;;;5094103;28;20191;-64
2022/07/11 03:24:55;;;;;;;4.60;0.90;;;14.70;99.90;;;;;;5093992;28;20175;-64
2022/07/11 03:27:22;;;;;;;1.67;0.60;;;14.60;99.90;;;;;;5091918;28;20231;-64
2022/07/11 03:29:50;;;;;;;3.33;0.70;;;14.60;99.90;;;;;;5093989;28;20666;-65
2022/07/11 03:32:20;;;;;;;4.30;1.10;;;14.50;99.90;;;;;;5093896;28;20210;-64
2022/07/11 03:37:35;;;;;;;2.90;0.73;;;14.50;99.90;;;;;;5062172;28;20187;-65
2022/07/11 03:40:02;;;;;;;2.73;1.00;;;14.60;99.90;;;;;;5093364;28;20214;-65
2022/07/11 03:42:29;;;;;;;1.40;0.70;;;14.50;99.90;;;;;;5089474;28;20176;-65
2022/07/11 03:44:57;;;;;;;1.77;0.70;;;14.70;99.90;;;;;;5073463;28;20521;-63
2022/07/11 03:47:24;;;;;;;2.90;0.80;;;14.80;99.90;;;;;;5073205;28;20172;-63
2022/07/11 03:49:51;;;;;;;3.33;1.00;;;14.90;99.90;;;;;;5077015;28;20213;-64
2022/07/11 03:52:19;;;;;;;1.10;0.67;;;14.80;99.90;;;;;;5092117;28;20622;-64
2022/07/11 03:54:46;;;;;;;0.87;0.60;;;14.80;99.90;;;;;;5078274;28;20253;-65
2022/07/11 03:57:13;;;;;;;2.23;0.90;;;14.90;99.90;;;;;;5092522;28;20214;-64
2022/07/11 03:59:41;;;;;;;1.43;0.90;;;14.90;99.90;;;;;;5092912;28;20240;-65
2022/07/11 04:02:08;;;;;;;1.17;0.83;;;14.90;99.90;;;;;;5093185;28;20266;-64
2022/07/11 04:04:35;;;;;;;1.97;1.10;;;14.90;99.90;;;;;;5093389;28;20644;-63
2022/07/11 04:07:03;;;;;;;2.67;0.90;;;14.80;99.90;;;;;;5074478;28;20559;-64
2022/07/11 04:09:31;;;;;;;2.90;1.03;;;14.90;99.90;;;;;;5092940;28;20929;-64
2022/07/11 04:11:58;;;;;;;1.83;1.03;;;15.00;99.90;;;;;;5092975;28;20231;-64
2022/07/11 04:14:25;;;;;;;4.67;3.00;;;15.00;99.90;;;;;;5093094;28;20269;-64
2022/07/11 04:16:53;;;;;;;1.30;0.73;;;15.10;99.90;;;;;;5092702;28;20190;-66
2022/07/11 04:19:20;;;;;;;4.10;1.40;;;15.10;99.90;;;;;;5082338;28;20212;-66
2022/07/11 04:21:47;;;;;;;1.77;0.70;;;15.00;99.90;;;;;;5075054;28;20184;-65
2022/07/11 04:24:14;;;;;;;1.10;0.70;;;15.10;99.90;;;;;;5077268;28;20207;-66
2022/07/11 04:26:42;;;;;;;1.40;0.70;;;15.10;99.90;;;;;;5074516;28;20208;-66
2022/07/11 04:29:09;;;;;;;2.63;0.60;;;15.20;99.90;;;;;;5089917;28;20587;-66
2022/07/11 04:31:37;;;;;;;4.50;0.70;;;15.20;99.90;;;;;;5070468;28;20213;-65
2022/07/11 04:34:04;;;;;;;0.70;0.70;;;15.20;99.90;;;;;;5084708;28;20233;-66
2022/07/11 04:36:32;;;;;;;2.67;0.90;;;15.20;99.90;;;;;;5092458;28;20218;-65
2022/07/11 04:39:00;;;;;;;2.33;0.80;;;15.20;99.90;;;;;;5092311;28;20225;-64
2022/07/11 04:41:27;;;;;;;2.13;0.90;;;15.20;99.90;;;;;;5074553;28;20182;-66
2022/07/11 04:43:54;;;;;;;3.07;1.20;;;15.40;99.90;;;;;;5073636;28;20268;-62
2022/07/11 04:46:22;;;;;;;3.53;1.10;;;15.40;99.90;;;;;;5092420;28;20700;-66
2022/07/11 04:48:49;;;;;;;2.40;1.03;;;15.40;99.90;;;;;;5092122;28;20224;-65
2022/07/11 04:51:17;;;;;;;2.43;0.90;;;15.50;99.90;;;;;;5076412;28;20188;-65
2022/07/11 04:53:45;;;;;;;3.87;1.47;;;15.60;99.90;;;;;;5087467;28;20300;-64
2022/07/11 04:56:12;;;;;;;1.77;1.00;;;15.60;99.90;;;;;;5091927;28;20244;-65
2022/07/11 04:58:39;;;;;;;5.47;2.37;;;15.70;99.90;;;;;;5092335;28;20175;-64
2022/07/11 05:01:07;;;;;;;3.63;1.17;;;15.90;99.90;;;;;;5092177;28;20183;-65
2022/07/11 05:03:34;;;;;;;4.83;1.33;;;16.00;99.90;;;;;;5090500;28;20183;-65
2022/07/11 05:06:02;;;;;;;2.97;1.53;;;16.00;99.90;;;;;;5086361;28;20233;-65
2022/07/11 05:08:30;;;;;;;5.17;1.33;;;16.00;99.90;;;;;;5076936;28;20180;-65
2022/07/11 05:10:57;;;;;;;2.10;1.20;;;16.10;99.90;;;;;;5092733;28;20819;-65
2022/07/11 05:13:25;;;;;;;1.40;1.10;;;16.10;99.90;;;;;;5091890;28;20247;-66
2022/07/11 05:15:52;;;;;;;4.47;1.50;;;16.40;99.90;;;;;;5091216;28;20206;-66
2022/07/11 05:18:19;;;;;;;6.70;1.70;;;17.10;99.90;;;;;;5091984;28;20319;-65
2022/07/11 05:20:48;;;;;;;8.17;2.00;;;17.30;99.90;;;;;;5091338;28;20217;-64
2022/07/11 05:23:16;;;;;;;2.73;1.50;;;17.10;99.90;;;;;;5085996;28;20188;-65
2022/07/11 05:25:43;;;;;;;3.10;1.50;;;16.50;99.90;;;;;;5081057;28;20182;-65
2022/07/11 05:28:10;;;;;;;4.17;1.27;;;16.30;99.90;;;;;;5091659;28;20226;-64
2022/07/11 05:30:38;;;;;;;6.30;1.80;;;16.00;99.90;;;;;;5091205;28;20182;-64
2022/07/11 05:33:05;;;;;;;4.13;1.87;;;15.80;99.90;;;;;;5091092;28;20264;-63
2022/07/11 05:35:32;;;;;;;6.03;1.70;;;15.70;99.90;;;;;;5068966;28;21054;-65
2022/07/11 05:38:00;;;;;;;4.43;1.90;;;15.60;99.90;;;;;;5072290;28;20180;-64
2022/07/11 05:40:27;;;;;;;3.97;1.50;;;15.50;99.90;;;;;;5091978;28;20270;-64
2022/07/11 05:42:54;;;;;;;4.60;1.57;;;15.40;99.90;;;;;;5091790;28;20654;-64
2022/07/11 05:45:22;;;;;;;4.50;1.67;;;15.30;99.90;;;;;;5091317;28;20282;-64
2022/07/11 05:47:49;;;;;;;3.20;1.53;;;15.20;99.90;;;;;;5089886;28;20183;-64
2022/07/11 05:50:16;;;;;;;3.07;1.50;;;15.10;99.90;;;;;;5091470;28;20186;-65
2022/07/11 05:52:44;;;;;;;3.73;1.30;;;15.00;99.90;;;;;;5091924;28;20233;-64
2022/07/11 05:55:11;;;;;;;4.30;1.50;;;14.90;99.90;;;;;;5091789;28;20170;-65
2022/07/11 05:57:38;;;;;;;5.00;1.23;;;14.90;99.90;;;;;;5090892;28;20231;-65
2022/07/11 06:00:06;;;;;;;5.03;1.40;;;14.80;99.90;;;;;;5076238;28;20183;-66
2022/07/11 06:02:33;;;;;;;4.63;1.63;;;14.80;99.90;;;;;;5071598;28;20205;-65
2022/07/11 06:05:00;;;;;;;3.87;1.30;;;14.70;99.90;;;;;;5088935;28;20185;-65
2022/07/11 06:10:13;;;;;;;7.03;1.60;;;14.70;99.90;;;;;;5051702;28;20732;-64
2022/07/11 06:12:41;;;;;;;4.00;1.27;;;14.50;99.90;;;;;;5059795;28;20314;-65
2022/07/11 06:15:09;;;;;;;5.17;1.63;;;14.40;99.90;;;;;;5071227;28;20193;-65
2022/07/11 06:17:36;;;;;;;5.00;1.50;;;14.30;99.90;;;;;;5072808;28;20184;-65
2022/07/11 06:20:04;;;;;;;3.73;1.43;;;14.20;99.90;;;;;;5068825;28;20281;-65
2022/07/11 06:22:31;;;;;;;6.40;1.63;;;14.20;99.90;;;;;;5091409;28;20193;-65
2022/07/11 06:24:59;;;;;;;2.27;1.33;;;14.10;99.90;;;;;;5091258;28;20187;-65
2022/07/11 06:27:26;;;;;;;5.33;1.30;;;14.00;99.90;;;;;;5090803;28;20261;-66
2022/07/11 06:29:53;;;;;;;3.27;1.63;;;13.90;99.90;;;;;;5091314;28;20186;-66
2022/07/11 06:32:21;;;;;;;3.90;1.43;;;13.90;99.90;;;;;;5091389;28;20218;-66
2022/07/11 06:34:48;;;;;;;2.60;1.57;;;13.90;99.90;;;;;;5091267;28;20186;-65
2022/07/11 06:37:15;;;;;;;3.57;1.63;;;13.80;99.90;;;;;;5091250;28;20180;-64
2022/07/11 06:39:43;;;;;;;6.90;1.70;;;13.80;99.90;;;;;;5051266;28;20179;-64
2022/07/11 06:42:10;;;;;;;7.67;2.07;;;13.70;99.90;;;;;;5090992;28;20259;-65
2022/07/11 06:44:37;;;;;;;5.00;1.60;;;13.70;99.90;;;;;;5090948;28;20188;-65
2022/07/11 06:47:05;;;;;;;8.03;2.27;;;13.60;99.90;;;;;;5089085;28;20188;-64
2022/07/11 06:49:32;;;;;;;4.17;2.07;;;13.60;99.90;;;;;;5071859;28;20182;-65
2022/07/11 06:52:00;;;;;;;3.60;1.80;;;13.50;99.90;;;;;;5081804;28;20195;-64
2022/07/11 06:54:27;;;;;;;3.87;2.30;;;13.40;99.90;;;;;;5094039;28;20220;-65
2022/07/11 06:56:55;;;;;;;6.57;2.30;;;13.40;99.90;;;;;;5092639;28;20183;-65
2022/07/11 06:59:22;;;;;;;5.17;2.00;;;13.30;99.90;;;;;;5094558;28;20199;-65
2022/07/11 07:01:49;;;;;;;7.00;2.07;;;13.20;99.90;;;;;;5094700;28;20207;-65
2022/07/11 07:04:17;;;;;;;3.40;2.03;;;13.10;99.90;;;;;;5094805;28;20706;-65
2022/07/11 07:06:44;;;;;;;8.27;2.50;;;13.00;99.90;;;;;;5079397;28;20192;-65
2022/07/11 07:09:11;;;;;;;7.77;2.10;;;12.90;99.90;;;;;;5071563;28;20265;-64
2022/07/11 07:11:39;;;;;;;5.53;2.23;;;12.90;99.90;;;;;;5094575;28;20667;-64
2022/07/11 07:14:06;;;;;;;4.77;2.23;;;12.80;99.90;;;;;;5094283;28;20234;-64
2022/07/11 07:16:34;;;;;;;7.53;2.60;;;12.70;99.90;;;;;;5093967;28;20186;-64
2022/07/11 07:19:02;;;;;;;6.03;2.50;;;12.70;99.90;;;;;;5076363;28;20232;-65
2022/07/11 07:21:30;;;;;;;5.17;3.20;;;12.70;99.90;;;;;;5076593;28;20282;-64
2022/07/11 07:23:57;;;;;;;5.47;2.80;;;12.80;99.90;;;;;;5094341;28;20260;-66
2022/07/11 07:26:25;;;;;;;6.47;3.30;;;12.80;99.90;;;;;;5093913;28;20195;-65
2022/07/11 07:28:52;;;;;;;5.83;2.70;;;12.70;99.90;;;;;;5094327;28;20201;-64
2022/07/11 07:31:19;;;;;;;4.47;2.77;;;12.70;99.90;;;;;;5094196;28;20517;-64
2022/07/11 07:33:46;;;;;;;6.57;2.63;;;12.70;99.90;;;;;;5093973;28;20214;-64
2022/07/11 07:36:14;;;;;;;9.33;3.40;;;12.70;99.90;;;;;;5094009;28;20273;-64
2022/07/11 07:38:46;;;;;;;4.80;2.73;;;12.70;99.90;;;;;;5082900;28;20214;-64
2022/07/11 07:41:14;;;;;;;3.80;2.83;;;12.70;99.90;;;;;;5052919;28;20625;-63
2022/07/11 07:43:42;;;;;;;5.07;2.70;;;12.70;99.90;;;;;;5075649;28;20232;-63
2022/07/11 07:46:10;;;;;;;3.90;3.00;;;12.60;99.90;;;;;;5073120;28;20172;-64
2022/07/11 07:48:38;;;;;;;7.27;3.33;;;12.50;99.90;;;;;;5073351;28;20175;-63
2022/07/11 07:51:05;;;;;;;7.60;3.07;;;12.50;99.90;;;;;;5075390;28;20214;-64
2022/07/11 07:53:33;;;;;;;7.67;3.30;;;12.40;99.90;;;;;;5070177;28;20216;-64
2022/07/11 07:56:00;;;;;;;4.93;3.00;;;12.30;99.90;;;;;;5074101;28;20195;-65
2022/07/11 07:58:28;;;;;;;7.40;3.07;;;12.30;99.90;;;;;;5077651;28;20192;-64
2022/07/11 08:03:40;;;;;;;8.77;3.57;;;12.20;99.90;;;;;;5074096;28;20182;-64
2022/07/11 08:06:07;;;;;;;9.30;4.50;;;12.10;99.90;;;;;;5075229;28;20190;-65
2022/07/11 08:08:35;;;;;;;7.10;3.20;;;12.00;99.90;;;;;;5093446;28;20185;-65
2022/07/11 08:11:02;;;;;;;6.90;3.90;;;11.90;99.90;;;;;;5093330;28;20182;-63
2022/07/11 08:13:30;;;;;;;7.40;3.33;;;11.90;99.90;;;;;;5093171;28;20581;-65
2022/07/11 08:15:57;;;;;;;6.93;3.73;;;11.80;99.90;;;;;;5093408;28;20170;-64
2022/07/11 08:18:26;;;;;;;8.83;4.20;;;11.70;99.90;;;;;;5092920;28;20197;-65
2022/07/11 08:20:57;;;;;;;7.40;3.93;;;11.70;99.90;;;;;;5093328;28;20599;-65
2022/07/11 08:23:24;;;;;;;10.70;4.40;;;11.70;99.90;;;;;;5093199;28;20206;-65
2022/07/11 08:25:52;;;;;;;8.40;4.60;;;11.80;99.90;;;;;;5093118;28;20186;-65
2022/07/11 08:28:20;;;;;;;11.50;5.73;;;11.70;99.90;;;;;;5074494;28;20715;-65
2022/07/11 08:30:47;;;;;;;9.40;4.47;;;11.80;99.90;;;;;;5091480;28;20278;-65
2022/07/11 08:33:14;;;;;;;8.70;4.27;;;11.80;99.90;;;;;;5092572;28;20217;-65
2022/07/11 08:35:42;;;;;;;8.73;4.43;;;11.70;99.90;;;;;;5093004;28;20174;-65
2022/07/11 08:38:09;;;;;;;6.80;4.40;;;11.70;99.90;;;;;;5092581;28;20186;-65
2022/07/11 08:40:36;;;;;;;8.33;4.33;;;11.60;99.90;;;;;;5092514;28;20258;-65
2022/07/11 08:43:13;;;;;;;6.00;4.17;;;11.60;99.90;;;;;;5092843;28;20177;-65
2022/07/11 08:45:40;;;;;;;11.23;5.70;;;11.50;99.90;;;;;;5090950;28;20176;-65
2022/07/11 08:48:09;;;;;;;9.90;5.37;;;11.40;99.90;;;;;;5079092;28;20184;-65
2022/07/11 08:50:36;;;;;;;8.73;5.37;;;11.40;99.90;;;;;;5092728;28;20170;-65
2022/07/11 08:53:05;;;;;;;10.50;4.50;;;11.30;99.90;;;;;;5092610;28;20196;-64
2022/07/11 08:55:33;;;;;;;8.67;4.97;;;11.20;99.90;;;;;;5071692;28;20189;-64
2022/07/11 08:58:02;;;;;;;9.27;5.17;;;11.20;99.90;;;;;;5072492;28;20196;-64
2022/07/11 09:00:29;;;;;;;17.50;5.20;;;11.10;99.90;;;;;;5075249;28;20184;-64
2022/07/11 09:02:58;;;;;;;12.20;5.20;;;11.10;99.90;;;;;;5092408;28;20177;-65
2022/07/11 09:05:27;;;;;;;11.63;6.20;;;11.00;99.90;;;;;;5069767;28;20194;-65
2022/07/11 09:07:54;;;;;;;13.70;6.17;;;10.90;99.90;;;;;;5084810;28;20275;-65
2022/07/11 09:10:21;;;;;;;14.10;6.60;;;10.90;99.90;;;;;;5072261;28;20717;-64
2022/07/11 09:13:06;;;;;;;13.53;7.27;;;10.80;99.90;;;;;;5073531;28;20194;-65
2022/07/11 09:15:37;;;;;;;16.07;8.97;;;10.70;99.90;;;;;;5092299;28;20184;-64
2022/07/11 09:18:07;;;;;;;17.83;9.33;;;10.60;99.90;;;;;;5052031;28;20209;-64
2022/07/11 09:26:31;;;;;;;23.03;13.00;;;10.50;99.90;;;;;;5079185;28;20184;-64
2022/07/11 09:29:10;;;;;;;17.33;10.80;;;10.40;99.90;;;;;;5092268;28;20188;-65
2022/07/11 09:31:40;;;;;;;18.30;11.40;;;10.50;99.90;;;;;;5092284;28;20187;-65
2022/07/11 09:34:13;;;;;;;28.00;12.00;;;10.40;99.90;;;;;;5092154;28;20216;-64
2022/07/11 09:36:45;;;;;;;20.23;11.77;;;10.40;99.90;;;;;;5091812;28;20181;-65
2022/07/11 09:39:15;;;;;;;20.07;9.80;;;10.40;99.90;;;;;;5091811;28;20704;-66
2022/07/11 09:41:43;;;;;;;16.03;10.50;;;10.40;99.90;;;;;;5091981;28;20268;-66
2022/07/11 09:44:19;;;;;;;16.63;10.57;;;10.40;99.90;;;;;;5092068;28;20172;-63
2022/07/11 09:46:52;;;;;;;22.23;11.20;;;10.30;99.90;;;;;;5091579;28;20639;-63
2022/07/11 09:49:40;;;;;;;20.33;11.93;;;10.40;99.90;;;;;;5092081;28;20639;-64
2022/07/11 09:52:17;;;;;;;20.73;10.77;;;10.40;99.90;;;;;;5092115;28;20179;-64
2022/07/11 09:55:00;;;;;;;20.33;12.50;;;10.40;99.90;;;;;;5092058;28;20188;-64
2022/07/11 09:57:35;;;;;;;26.17;12.43;;;10.40;99.90;;;;;;5089564;28;20196;-64
2022/07/11 10:00:08;;;;;;;24.83;14.40;;;10.40;99.90;;;;;;5092539;28;20595;-64
2022/07/11 10:02:36;;;;;;;22.57;15.57;;;10.50;99.90;;;;;;5094901;28;20183;-64
2022/07/11 10:05:04;;;;;;;27.40;16.50;;;10.50;99.90;;;;;;5094511;28;20210;-65
2022/07/11 10:07:32;;;;;;;22.37;14.97;;;10.40;99.90;;;;;;5092697;28;20212;-65
2022/07/11 10:10:03;;;;;;;26.87;15.70;;;10.40;99.90;;;;;;5091862;28;20187;-64
2022/07/11 10:12:32;;;;;;;19.03;13.73;;;10.40;99.90;;;;;;5091928;28;20283;-64
2022/07/11 10:15:09;;;;;;;24.33;16.27;;;10.40;99.90;;;;;;5091906;28;20214;-64
2022/07/11 10:17:39;;;;;;;18.93;14.37;;;10.40;99.90;;;;;;5093165;28;20263;-64
2022/07/11 10:20:22;;;;;;;25.10;15.30;;;10.30;99.90;;;;;;5095537;28;20181;-64
2022/07/11 10:22:57;;;;;;;17.60;13.43;;;10.30;99.90;;;;;;5095752;28;20231;-64
2022/07/11 10:25:36;;;;;;;17.33;13.77;;;10.30;99.90;;;;;;5095586;28;20186;-64
2022/07/11 10:28:25;;;;;;;21.23;12.03;;;10.20;99.90;;;;;;5095445;28;20769;-65
2022/07/11 10:30:59;;;;;;;20.10;12.90;;;10.20;99.90;;;;;;5095234;28;20706;-66
2022/07/11 10:33:28;;;;;;;22.07;14.87;;;10.20;99.90;;;;;;5095466;28;20234;-66
2022/07/11 10:35:56;;;;;;;22.20;12.47;;;10.20;99.90;;;;;;5095278;28;20212;-63
2022/07/11 10:38:24;;;;;;;22.67;12.87;;;10.20;99.90;;;;;;5095242;28;20190;-65
2022/07/11 10:40:56;;;;;;;20.10;12.83;;;10.30;99.90;;;;;;5095101;28;20708;-64
2022/07/11 10:43:36;;;;;;;22.80;13.13;;;10.30;99.90;;;;;;5095218;28;20226;-65
2022/07/11 10:46:06;;;;;;;19.40;12.17;;;10.30;99.90;;;;;;5095403;28;20655;-65
2022/07/11 10:48:56;;;;;;;23.73;12.33;;;10.20;99.90;;;;;;5095054;28;20266;-64
2022/07/11 10:51:35;;;;;;;24.30;13.43;;;10.10;99.90;;;;;;5094932;28;20188;-65
2022/07/11 10:54:26;;;;;;;16.17;12.33;;;10.00;99.90;;;;;;5095175;28;20252;-64
2022/07/11 10:57:06;;;;;;;31.13;18.63;;;10.00;99.90;;;;;;5094913;28;20615;-65
2022/07/11 10:59:33;;;;;;;25.63;16.37;;;10.00;99.90;;;;;;5094983;28;20606;-65
2022/07/11 11:02:12;;;;;;;24.07;16.13;;;9.90;99.90;;;;;;5095122;28;20177;-65
2022/07/11 11:04:43;;;;;;;19.23;14.47;;;9.90;99.90;;;;;;5096552;28;20650;-66
2022/07/11 11:07:44;;;;;;;27.60;14.03;;;9.90;99.90;;;;;;5096162;28;20187;-65
2022/07/11 11:10:20;;;;;;;19.93;12.20;;;9.90;99.90;;;;;;5096015;28;20186;-66
2022/07/11 11:13:11;;;;;;;15.20;11.87;;;9.90;99.90;;;;;;5097397;28;20191;-64
2022/07/11 11:15:57;;;;;;;21.07;12.47;;;9.90;99.90;;;;;;5096675;28;20180;-65
2022/07/11 11:18:24;;;;;;;20.70;12.53;;;9.90;99.90;;;;;;5096015;28;20197;-66
2022/07/11 11:21:01;;;;;;;29.17;18.63;;;9.90;99.90;;;;;;5096303;28;20179;-65
2022/07/11 11:23:35;;;;;;;23.70;17.00;;;9.80;99.90;;;;;;5096005;28;20178;-65
2022/07/11 11:26:09;;;;;;;26.83;16.03;;;9.80;99.90;;;;;;5095964;28;20260;-65
2022/07/11 11:28:38;;;;;;;23.20;15.87;;;9.80;99.90;;;;;;5077205;28;20295;-65
2022/07/11 11:31:07;;;;;;;19.20;14.57;;;9.90;99.90;;;;;;5095778;28;20270;-66
2022/07/11 11:33:37;;;;;;;19.50;14.17;;;9.90;99.90;;;;;;5095479;28;20212;-65
2022/07/11 11:36:09;;;;;;;20.30;13.67;;;9.90;99.90;;;;;;5095403;28;20222;-65
2022/07/11 11:38:38;;;;;;;22.33;13.57;;;9.80;99.90;;;;;;5094486;28;20269;-64
2022/07/11 11:41:07;;;;;;;20.87;13.73;;;9.80;99.90;;;;;;5094887;28;20558;-64
2022/07/11 11:43:36;;;;;;;22.83;13.53;;;9.80;99.90;;;;;;5095331;28;20175;-65
2022/07/11 11:46:03;;;;;;;25.43;13.30;;;9.80;99.90;;;;;;5095377;28;20175;-65
2022/07/11 11:48:31;;;;;;;19.43;12.90;;;9.80;99.90;;;;;;5095101;28;20187;-65
2022/07/11 11:51:06;;;;;;;18.30;11.87;;;9.80;99.90;;;;;;5095361;28;20175;-65
2022/07/11 11:53:45;;;;;;;21.97;12.67;;;9.70;99.90;;;;;;5095142;28;20219;-65
2022/07/11 11:56:15;;;;;;;22.53;12.97;;;9.70;99.90;;;;;;5094755;28;20543;-64
2022/07/11 11:58:44;;;;;;;19.27;11.90;;;9.60;99.90;;;;;;5094815;28;20274;-65
2022/07/11 12:01:20;;;;;;;19.03;11.47;;;9.60;99.90;;;;;;5095135;28;20250;-64
2022/07/11 12:04:05;;;;;;;17.57;12.07;;;9.60;99.90;;;;;;5094978;28;20205;-64
2022/07/11 12:06:34;;;;;;;19.93;12.13;;;9.60;99.90;;;;;;5079104;28;20187;-65
2022/07/11 12:09:12;;;;;;;16.23;11.67;;;9.50;99.90;;;;;;5066366;28;20539;-64
2022/07/11 12:11:41;;;;;;;17.63;11.23;;;9.50;99.90;;;;;;5094971;28;20175;-64
2022/07/11 12:14:11;;;;;;;18.30;10.70;;;9.40;99.90;;;;;;5076540;28;20623;-65
2022/07/11 12:16:46;;;;;;;19.13;11.57;;;9.50;99.90;;;;;;5094711;28;20583;-64
2022/07/11 12:19:21;;;;;;;22.33;10.77;;;9.50;99.90;;;;;;5094152;28;20207;-64
2022/07/11 12:21:55;;;;;;;20.93;10.83;;;9.50;99.90;;;;;;5094854;28;20189;-65
2022/07/11 12:24:27;;;;;;;14.00;9.83;;;9.50;99.90;;;;;;5094619;28;20178;-65
2022/07/11 12:26:56;;;;;;;15.30;10.23;;;9.40;99.90;;;;;;5094582;28;20597;-64
2022/07/11 12:29:28;;;;;;;16.13;11.33;;;9.40;99.90;;;;;;5094169;28;20184;-65
2022/07/11 12:32:01;;;;;;;17.20;9.53;;;9.40;99.90;;;;;;5094345;28;20179;-65
2022/07/11 12:34:35;;;;;;;18.80;10.27;;;9.30;99.90;;;;;;5075414;28;20215;-64
2022/07/11 12:37:10;;;;;;;16.87;10.50;;;9.30;99.90;;;;;;5093826;28;20190;-65
2022/07/11 12:39:51;;;;;;;21.20;10.57;;;9.30;99.90;;;;;;5077383;28;20569;-65
2022/07/11 12:42:33;;;;;;;17.17;11.27;;;9.30;99.90;;;;;;5094288;28;20167;-65
2022/07/11 12:45:08;;;;;;;14.80;10.57;;;9.30;99.90;;;;;;5093508;28;20187;-64
2022/07/11 12:47:46;;;;;;;12.87;9.90;;;9.30;99.90;;;;;;5094284;28;20175;-64
2022/07/11 12:50:26;;;;;;;14.40;9.60;;;9.20;99.90;;;;;;5075730;28;20211;-65
2022/07/11 12:52:56;;;;;;;15.70;10.10;;;9.20;99.90;;;;;;5094076;28;20785;-64
2022/07/11 12:55:34;;;;;;;20.53;10.90;;;9.20;99.90;;;;;;5094106;28;20694;-64
2022/07/11 12:58:18;;;;;;;17.70;10.60;;;9.20;99.90;;;;;;5093834;28;20175;-64
2022/07/11 13:01:06;;;;;;;17.03;9.50;;;9.20;99.90;;;;;;5075199;28;20190;-64
2022/07/11 13:03:36;;;;;;;13.23;9.00;;;9.20;99.90;;;;;;5093963;28;20167;-65
2022/07/11 13:06:04;;;;;;;19.50;9.30;;;9.10;99.90;;;;;;5094025;28;20175;-65
2022/07/11 13:08:42;;;;;;;15.67;9.07;;;9.10;99.90;;;;;;5075144;28;20541;-65
2022/07/11 13:11:14;;;;;;;16.47;9.63;;;9.20;99.90;;;;;;5093605;28;20194;-65